createdAt,value
2022-12-12T00:02:11.132Z,25.28
2022-12-12T00:07:11.019Z,25.49
2022-12-12T00:12:10.994Z,25.76
2022-12-12T00:17:10.995Z,25.37
2022-12-12T00:22:10.992Z,24.55
2022-12-12T00:27:11.003Z,24.84
2022-12-12T00:32:11.033Z,25.07
2022-12-12T00:37:10.998Z,24.7
2022-12-12T00:42:11.012Z,23.56
2022-12-12T00:47:11.031Z,23.64
2022-12-12T00:52:11.002Z,24.01
2022-12-12T00:57:11.004Z,23.41
2022-12-12T01:02:11.073Z,23.39
2022-12-12T01:07:11.015Z,22.75
2022-12-12T01:12:11.007Z,23.66
2022-12-12T01:17:11.037Z,23.55
2022-12-12T01:22:11.018Z,23.81
2022-12-12T01:27:11.056Z,23.61
2022-12-12T01:32:11.015Z,23.79
2022-12-12T01:37:11.042Z,23.88
2022-12-12T01:42:11.038Z,23.96
2022-12-12T01:47:11.007Z,23.74
2022-12-12T01:52:11.052Z,22.66
2022-12-12T01:57:11.017Z,22.63
2022-12-12T02:02:11.063Z,21.54
2022-12-12T02:07:11.048Z,21.03
2022-12-12T02:12:11.028Z,20.75
2022-12-12T02:17:11.027Z,20.2
2022-12-12T02:22:11.068Z,20.13
2022-12-12T02:27:11.079Z,19.75
2022-12-12T02:32:11.030Z,19.53
2022-12-12T02:37:11.037Z,18.85
2022-12-12T02:42:11.038Z,18.69
2022-12-12T02:47:11.037Z,17.77
2022-12-12T02:52:11.042Z,18.33
2022-12-12T02:57:11.029Z,18.04
2022-12-12T03:02:11.061Z,17.61
2022-12-12T03:07:11.066Z,17.2
2022-12-12T03:12:11.046Z,17.04
2022-12-12T03:17:11.082Z,16.85
2022-12-12T03:22:11.049Z,16.87
2022-12-12T03:27:11.073Z,16.79
2022-12-12T03:32:11.061Z,16.87
2022-12-12T03:37:11.081Z,16.19
2022-12-12T03:42:11.083Z,16.03
2022-12-12T03:47:11.082Z,16.24
2022-12-12T03:52:11.068Z,16.14
2022-12-12T03:57:11.053Z,16.13
2022-12-12T04:02:11.067Z,16.35
2022-12-12T04:07:11.067Z,16.98
2022-12-12T04:12:11.068Z,16.29
2022-12-12T04:17:11.076Z,16.03
2022-12-12T04:22:14.062Z,15.61
2022-12-12T04:27:11.054Z,15.22
2022-12-12T04:32:11.117Z,14.8
2022-12-12T04:37:11.088Z,14.68
2022-12-12T04:42:11.064Z,14.15
2022-12-12T04:47:11.078Z,13.93
2022-12-12T04:52:11.059Z,13.94
2022-12-12T04:57:11.094Z,13.41
2022-12-12T05:02:11.151Z,13.27
2022-12-12T05:07:11.076Z,13.03
2022-12-12T05:12:11.097Z,13.43
2022-12-12T05:17:11.075Z,13.31
2022-12-12T05:22:11.068Z,13.39
2022-12-12T05:27:11.082Z,12.78
2022-12-12T05:32:11.078Z,12.61
2022-12-12T05:37:11.080Z,12.81
2022-12-12T05:42:11.074Z,12.88
2022-12-12T05:47:11.082Z,13.33
2022-12-12T05:52:11.091Z,13.72
2022-12-12T05:57:11.091Z,12
2022-12-12T06:02:11.167Z,11.47
2022-12-12T06:07:11.094Z,11.92
2022-12-12T06:12:11.118Z,11.84
2022-12-12T06:17:11.093Z,11.91
2022-12-12T06:22:11.133Z,11.39
2022-12-12T06:27:11.117Z,11.33
2022-12-12T06:32:11.100Z,11.33
2022-12-12T06:37:15.663Z,11.66
2022-12-12T06:42:11.113Z,11.97
2022-12-12T06:47:11.096Z,11.61
2022-12-12T06:52:11.132Z,11.6
2022-12-12T06:57:11.097Z,11.98
2022-12-12T07:02:11.135Z,11.66
2022-12-12T07:07:11.101Z,11.88
2022-12-12T07:12:11.108Z,11.92
2022-12-12T07:17:11.107Z,12.46
2022-12-12T07:22:11.114Z,12.45
2022-12-12T07:27:11.116Z,13.33
2022-12-12T07:32:11.145Z,13.82
2022-12-12T07:37:11.124Z,14.22
2022-12-12T07:42:11.157Z,13.95
2022-12-12T07:47:11.121Z,13.97
2022-12-12T07:52:11.121Z,14.24
2022-12-12T07:57:11.117Z,14.05
2022-12-12T08:02:11.145Z,13.88
2022-12-12T08:12:11.132Z,13.74
2022-12-12T08:17:11.160Z,14.5
2022-12-12T08:22:11.117Z,13.9
2022-12-12T08:27:15.295Z,14.32
2022-12-12T08:32:11.136Z,14.76
2022-12-12T08:37:11.127Z,14.72
2022-12-12T08:42:11.138Z,14.33
2022-12-12T08:47:11.187Z,13.98
2022-12-12T08:52:11.142Z,14.16
2022-12-12T08:57:11.136Z,13.39
2022-12-12T09:02:11.204Z,14.05
2022-12-12T09:07:11.149Z,13.88
2022-12-12T09:12:11.165Z,13.62
2022-12-12T09:17:11.179Z,13.13
2022-12-12T09:22:11.184Z,12.96
2022-12-12T09:27:11.151Z,14.55
2022-12-12T09:32:11.182Z,13.81
2022-12-12T09:37:11.156Z,14.54
2022-12-12T09:42:11.195Z,13.92
2022-12-12T09:47:11.179Z,13.87
2022-12-12T09:52:11.157Z,14.36
2022-12-12T10:02:11.171Z,13.49
2022-12-12T10:07:11.151Z,13.77
2022-12-12T10:12:11.194Z,14.2
2022-12-12T10:17:11.169Z,14.19
2022-12-12T10:22:11.180Z,14.63
2022-12-12T10:27:11.179Z,14.79
2022-12-12T10:32:11.207Z,14.69
2022-12-12T10:37:11.197Z,15.26
2022-12-12T10:42:11.192Z,17.36
2022-12-12T10:47:11.229Z,15.88
2022-12-12T10:52:11.176Z,16.29
2022-12-12T10:57:14.079Z,17.53
2022-12-12T11:02:11.346Z,16.99
2022-12-12T11:07:11.172Z,20.27
2022-12-12T11:12:11.186Z,20.16
2022-12-12T11:17:11.179Z,17.63
2022-12-12T11:22:11.218Z,26.89
2022-12-12T11:27:11.211Z,29.71
2022-12-12T11:32:11.201Z,32.51
2022-12-12T11:37:11.182Z,25.52
2022-12-12T11:42:11.188Z,19.54
2022-12-12T11:47:11.224Z,17.92
2022-12-12T11:52:11.230Z,16.37
2022-12-12T11:57:11.229Z,17.41
2022-12-12T12:02:11.229Z,15.3
2022-12-12T12:07:11.206Z,16.51
2022-12-12T12:12:11.233Z,17.36
2022-12-12T12:17:11.201Z,15.35
2022-12-12T12:22:11.225Z,17.28
2022-12-12T12:27:11.214Z,20.14
2022-12-12T12:32:11.247Z,21.53
2022-12-12T12:37:11.231Z,25.71
2022-12-12T12:42:11.213Z,19.79
2022-12-12T12:47:11.219Z,18.35
2022-12-12T12:52:11.222Z,22.43
2022-12-12T12:57:11.217Z,19.61
2022-12-12T13:02:11.266Z,18.2
2022-12-12T13:07:11.211Z,27.6
2022-12-12T13:12:11.205Z,39.08
2022-12-12T13:17:11.256Z,34.36
2022-12-12T13:22:11.217Z,34.57
2022-12-12T13:27:11.254Z,50.76
2022-12-12T13:32:11.226Z,39.92
2022-12-12T13:37:11.223Z,32.01
2022-12-12T13:42:11.224Z,30.25
2022-12-12T13:47:11.255Z,21.35
2022-12-12T13:52:11.232Z,17.89
2022-12-12T13:57:11.231Z,19.41
2022-12-12T14:02:11.244Z,20.01
2022-12-12T14:07:11.296Z,17.17
2022-12-12T14:12:11.270Z,16.55
2022-12-12T14:17:11.271Z,16.99
2022-12-12T14:22:11.246Z,20.73
2022-12-12T14:27:11.283Z,23.31
2022-12-12T14:32:11.256Z,33.75
2022-12-12T14:37:11.249Z,28.91
2022-12-12T14:42:11.281Z,25.24
2022-12-12T14:47:11.250Z,27.64
2022-12-12T14:52:11.287Z,30.88
2022-12-12T14:57:11.243Z,25.75
2022-12-12T15:02:11.281Z,24.61
2022-12-12T15:07:11.292Z,21.38
2022-12-12T15:12:11.247Z,22.56
2022-12-12T15:17:11.279Z,19.32
2022-12-12T15:22:11.276Z,16.26
2022-12-12T15:27:11.277Z,18.5
2022-12-12T15:32:11.314Z,17.32
2022-12-12T15:37:11.273Z,16.28
2022-12-12T15:42:11.271Z,16.64
2022-12-12T15:47:11.289Z,18.36
2022-12-12T15:52:11.270Z,19.76
2022-12-12T15:57:11.287Z,17.41
2022-12-12T16:02:11.345Z,19.99
2022-12-12T16:07:11.266Z,17.21
2022-12-12T16:12:11.281Z,19.28
2022-12-12T16:17:11.320Z,19.27
2022-12-12T16:22:11.271Z,16.43
2022-12-12T16:27:11.282Z,16.39
2022-12-12T16:32:11.315Z,15.14
2022-12-12T16:37:11.289Z,16.91
2022-12-12T16:42:11.286Z,16.5
2022-12-12T16:47:11.290Z,14.7
2022-12-12T16:52:11.311Z,15.21
2022-12-12T16:57:11.374Z,14.18
2022-12-12T17:02:11.294Z,13.38
2022-12-12T17:07:11.317Z,14.48
2022-12-12T17:12:11.318Z,13
2022-12-12T17:17:11.300Z,15.92
2022-12-12T17:22:11.322Z,14.37
2022-12-12T17:27:11.298Z,15.16
2022-12-12T17:32:11.320Z,16.03
2022-12-12T17:37:11.301Z,15.44
2022-12-12T17:42:11.306Z,15.73
2022-12-12T17:47:11.306Z,15.31
2022-12-12T17:52:11.339Z,17.58
2022-12-12T17:57:11.317Z,15.84
2022-12-12T18:02:11.297Z,15.96
2022-12-12T18:07:11.319Z,16.01
2022-12-12T18:12:11.311Z,15.05
2022-12-12T18:17:11.338Z,16.02
2022-12-12T18:22:11.347Z,15.32
2022-12-12T18:27:11.319Z,17.34
2022-12-12T18:32:11.426Z,18.82
2022-12-12T18:37:11.360Z,18.88
2022-12-12T18:42:11.349Z,18.04
2022-12-12T18:47:11.361Z,18.26
2022-12-12T18:52:11.361Z,18.6
2022-12-12T18:57:11.361Z,18.5
2022-12-12T19:02:11.396Z,18.39
2022-12-12T19:07:11.322Z,18.26
2022-12-12T19:12:11.321Z,22.05
2022-12-12T19:17:11.383Z,20.88
2022-12-12T19:22:32.276Z,22.74
2022-12-12T19:27:11.361Z,20
2022-12-12T19:32:11.337Z,21.77
2022-12-12T19:37:11.346Z,23.16
2022-12-12T19:42:11.337Z,22.06
2022-12-12T19:47:11.345Z,22.58
2022-12-12T19:52:14.209Z,22.69
2022-12-12T19:57:11.375Z,22.63
2022-12-12T20:02:11.459Z,23.04
2022-12-12T20:07:11.377Z,24.52
2022-12-12T20:12:11.356Z,24.25
2022-12-12T20:17:11.349Z,29.62
2022-12-12T20:22:11.380Z,32.07
2022-12-12T20:32:11.358Z,24.38
2022-12-12T20:37:14.127Z,28.42
2022-12-12T20:42:11.373Z,31.98
2022-12-12T20:47:11.409Z,26.97
2022-12-12T20:52:11.362Z,30.74
2022-12-12T20:57:11.382Z,27.09
2022-12-12T21:02:11.391Z,26.8
2022-12-12T21:07:11.377Z,37.56
2022-12-12T21:12:11.365Z,31.02
2022-12-12T21:17:11.352Z,28.16
2022-12-12T21:22:11.376Z,29.23
2022-12-12T21:27:11.381Z,30.98
2022-12-12T21:32:11.379Z,26.89
2022-12-12T21:37:11.409Z,27.7
2022-12-12T21:42:11.380Z,26.55
2022-12-12T21:47:11.389Z,29.24
2022-12-12T21:52:11.418Z,32.2
2022-12-12T21:57:11.409Z,28.42
2022-12-12T22:02:11.376Z,25.56
2022-12-12T22:07:11.384Z,25.27
2022-12-12T22:12:11.383Z,25.17
2022-12-12T22:17:11.396Z,22.64
2022-12-12T22:22:11.391Z,23.06
2022-12-12T22:27:11.381Z,23.45
2022-12-12T22:32:11.421Z,22.95
2022-12-12T22:37:11.392Z,22.18
2022-12-12T22:42:11.396Z,20.71
2022-12-12T22:47:11.498Z,20.86
2022-12-12T22:52:11.393Z,19.09
2022-12-12T22:57:11.393Z,19.67
2022-12-12T23:02:11.385Z,18.23
2022-12-12T23:07:11.388Z,17.97
2022-12-12T23:12:11.405Z,17.32
2022-12-12T23:17:11.408Z,16.9
2022-12-12T23:22:11.386Z,17.04
2022-12-12T23:27:11.381Z,17.68
2022-12-12T23:32:11.416Z,16.43
2022-12-12T23:37:11.386Z,16.2
2022-12-12T23:42:11.416Z,16.13
2022-12-12T23:47:11.385Z,16.24
2022-12-12T23:52:11.379Z,15.98
2022-12-12T23:57:11.475Z,14.69
